sensor_id;sensor_type;location;lat;lon;timestamp;temperature;humidity
37806;DHT22;25082;50.870;0.022;2022-08-27T00:02:03;22.00;72.50
37806;DHT22;25082;50.870;0.022;2022-08-27T00:04:29;21.90;72.50
37806;DHT22;25082;50.870;0.022;2022-08-27T00:06:55;22.00;72.60
37806;DHT22;25082;50.870;0.022;2022-08-27T00:09:21;21.90;72.50
37806;DHT22;25082;50.870;0.022;2022-08-27T00:11:47;21.90;72.50
37806;DHT22;25082;50.870;0.022;2022-08-27T00:14:13;21.90;72.50
37806;DHT22;25082;50.870;0.022;2022-08-27T00:16:40;21.90;72.50
37806;DHT22;25082;50.870;0.022;2022-08-27T00:19:07;21.90;73.10
37806;DHT22;25082;50.870;0.022;2022-08-27T00:21:32;21.90;72.50
37806;DHT22;25082;50.870;0.022;2022-08-27T00:23:59;21.90;72.40
37806;DHT22;25082;50.870;0.022;2022-08-27T00:26:25;21.90;72.50
37806;DHT22;25082;50.870;0.022;2022-08-27T00:28:51;21.90;72.50
37806;DHT22;25082;50.870;0.022;2022-08-27T00:31:17;21.90;72.50
37806;DHT22;25082;50.870;0.022;2022-08-27T00:33:43;21.90;72.60
37806;DHT22;25082;50.870;0.022;2022-08-27T00:36:10;21.90;72.50
37806;DHT22;25082;50.870;0.022;2022-08-27T00:38:36;21.90;72.40
37806;DHT22;25082;50.870;0.022;2022-08-27T00:41:04;21.90;72.50
37806;DHT22;25082;50.870;0.022;2022-08-27T00:43:54;21.90;72.40
37806;DHT22;25082;50.870;0.022;2022-08-27T00:46:36;21.90;72.40
37806;DHT22;25082;50.870;0.022;2022-08-27T00:49:19;21.90;72.40
37806;DHT22;25082;50.870;0.022;2022-08-27T00:51:50;21.90;72.40
37806;DHT22;25082;50.870;0.022;2022-08-27T00:54:16;21.90;72.50
37806;DHT22;25082;50.870;0.022;2022-08-27T00:56:43;21.90;72.50
37806;DHT22;25082;50.870;0.022;2022-08-27T00:59:11;21.90;72.40
37806;DHT22;25082;50.870;0.022;2022-08-27T01:01:41;21.90;72.40
37806;DHT22;25082;50.870;0.022;2022-08-27T01:04:26;21.90;72.50
37806;DHT22;25082;50.870;0.022;2022-08-27T01:06:53;21.90;72.40
37806;DHT22;25082;50.870;0.022;2022-08-27T01:09:20;21.90;72.40
37806;DHT22;25082;50.870;0.022;2022-08-27T01:11:47;21.80;72.30
37806;DHT22;25082;50.870;0.022;2022-08-27T01:14:14;21.90;72.40
37806;DHT22;25082;50.870;0.022;2022-08-27T01:16:46;21.80;72.30
37806;DHT22;25082;50.870;0.022;2022-08-27T01:24:33;21.80;72.30
37806;DHT22;25082;50.870;0.022;2022-08-27T01:27:02;21.80;72.30
37806;DHT22;25082;50.870;0.022;2022-08-27T01:29:29;21.80;72.30
37806;DHT22;25082;50.870;0.022;2022-08-27T01:32:23;21.80;72.30
37806;DHT22;25082;50.870;0.022;2022-08-27T01:34:49;21.80;72.20
37806;DHT22;25082;50.870;0.022;2022-08-27T01:37:16;21.80;72.30
37806;DHT22;25082;50.870;0.022;2022-08-27T01:39:43;21.80;72.30
37806;DHT22;25082;50.870;0.022;2022-08-27T01:42:15;21.80;72.30
37806;DHT22;25082;50.870;0.022;2022-08-27T01:44:51;21.80;72.20
37806;DHT22;25082;50.870;0.022;2022-08-27T01:47:18;21.80;72.20
37806;DHT22;25082;50.870;0.022;2022-08-27T01:49:45;21.80;72.20
37806;DHT22;25082;50.870;0.022;2022-08-27T01:52:12;21.80;72.20
37806;DHT22;25082;50.870;0.022;2022-08-27T01:54:39;21.80;72.20
37806;DHT22;25082;50.870;0.022;2022-08-27T01:57:05;21.80;72.20
37806;DHT22;25082;50.870;0.022;2022-08-27T01:59:31;21.80;72.20
37806;DHT22;25082;50.870;0.022;2022-08-27T02:01:58;21.80;72.20
37806;DHT22;25082;50.870;0.022;2022-08-27T02:04:27;21.80;72.20
37806;DHT22;25082;50.870;0.022;2022-08-27T02:06:53;21.80;72.20
37806;DHT22;25082;50.870;0.022;2022-08-27T02:09:19;21.80;72.20
37806;DHT22;25082;50.870;0.022;2022-08-27T02:11:45;21.80;72.10
37806;DHT22;25082;50.870;0.022;2022-08-27T02:14:11;21.80;72.10
37806;DHT22;25082;50.870;0.022;2022-08-27T02:16:36;21.80;72.20
37806;DHT22;25082;50.870;0.022;2022-08-27T02:19:03;21.80;72.10
37806;DHT22;25082;50.870;0.022;2022-08-27T02:21:28;21.70;72.00
37806;DHT22;25082;50.870;0.022;2022-08-27T02:23:54;21.70;71.90
37806;DHT22;25082;50.870;0.022;2022-08-27T02:26:20;21.80;72.00
37806;DHT22;25082;50.870;0.022;2022-08-27T02:28:47;21.80;72.00
37806;DHT22;25082;50.870;0.022;2022-08-27T02:31:13;21.70;71.90
37806;DHT22;25082;50.870;0.022;2022-08-27T02:33:39;21.70;71.90
37806;DHT22;25082;50.870;0.022;2022-08-27T02:36:05;21.70;72.00
37806;DHT22;25082;50.870;0.022;2022-08-27T02:38:31;21.70;71.90
37806;DHT22;25082;50.870;0.022;2022-08-27T02:40:57;21.70;71.90
37806;DHT22;25082;50.870;0.022;2022-08-27T02:43:23;21.70;71.90
37806;DHT22;25082;50.870;0.022;2022-08-27T02:45:48;21.70;71.90
37806;DHT22;25082;50.870;0.022;2022-08-27T02:48:15;21.70;72.50
37806;DHT22;25082;50.870;0.022;2022-08-27T02:50:41;21.70;71.80
37806;DHT22;25082;50.870;0.022;2022-08-27T02:53:08;21.70;71.80
37806;DHT22;25082;50.870;0.022;2022-08-27T02:55:34;21.70;71.90
37806;DHT22;25082;50.870;0.022;2022-08-27T02:58:00;21.70;71.90
37806;DHT22;25082;50.870;0.022;2022-08-27T03:00:26;21.70;71.80
37806;DHT22;25082;50.870;0.022;2022-08-27T03:02:54;21.70;71.80
37806;DHT22;25082;50.870;0.022;2022-08-27T03:05:20;21.70;71.90
37806;DHT22;25082;50.870;0.022;2022-08-27T03:07:46;21.70;71.80
37806;DHT22;25082;50.870;0.022;2022-08-27T03:10:16;21.70;71.80
37806;DHT22;25082;50.870;0.022;2022-08-27T03:12:43;21.70;71.80
37806;DHT22;25082;50.870;0.022;2022-08-27T03:15:14;21.70;71.80
37806;DHT22;25082;50.870;0.022;2022-08-27T03:17:40;21.70;71.80
37806;DHT22;25082;50.870;0.022;2022-08-27T03:20:24;21.70;71.80
37806;DHT22;25082;50.870;0.022;2022-08-27T03:22:50;21.70;71.80
37806;DHT22;25082;50.870;0.022;2022-08-27T03:25:17;21.60;71.70
37806;DHT22;25082;50.870;0.022;2022-08-27T03:27:43;21.60;71.80
37806;DHT22;25082;50.870;0.022;2022-08-27T03:30:12;21.60;71.70
37806;DHT22;25082;50.870;0.022;2022-08-27T03:32:40;21.60;71.60
37806;DHT22;25082;50.870;0.022;2022-08-27T03:35:06;21.60;71.70
37806;DHT22;25082;50.870;0.022;2022-08-27T03:37:32;21.60;71.70
37806;DHT22;25082;50.870;0.022;2022-08-27T03:39:58;21.60;71.70
37806;DHT22;25082;50.870;0.022;2022-08-27T03:42:23;21.60;71.70
37806;DHT22;25082;50.870;0.022;2022-08-27T03:44:50;21.60;71.70
37806;DHT22;25082;50.870;0.022;2022-08-27T03:47:16;21.60;71.60
37806;DHT22;25082;50.870;0.022;2022-08-27T03:49:43;21.60;71.70
37806;DHT22;25082;50.870;0.022;2022-08-27T03:52:08;21.60;71.70
37806;DHT22;25082;50.870;0.022;2022-08-27T03:54:36;21.60;71.60
37806;DHT22;25082;50.870;0.022;2022-08-27T03:57:02;21.60;71.70
37806;DHT22;25082;50.870;0.022;2022-08-27T03:59:28;21.60;71.70
37806;DHT22;25082;50.870;0.022;2022-08-27T04:01:55;21.60;71.70
37806;DHT22;25082;50.870;0.022;2022-08-27T04:04:21;21.60;71.60
37806;DHT22;25082;50.870;0.022;2022-08-27T04:06:48;21.60;71.60
37806;DHT22;25082;50.870;0.022;2022-08-27T04:09:14;21.60;71.70
37806;DHT22;25082;50.870;0.022;2022-08-27T04:11:40;21.60;71.60
37806;DHT22;25082;50.870;0.022;2022-08-27T04:14:06;21.60;71.60
37806;DHT22;25082;50.870;0.022;2022-08-27T04:16:33;21.60;71.60
37806;DHT22;25082;50.870;0.022;2022-08-27T04:19:00;21.60;71.70
37806;DHT22;25082;50.870;0.022;2022-08-27T04:21:27;21.60;71.60
37806;DHT22;25082;50.870;0.022;2022-08-27T04:23:54;21.50;71.60
37806;DHT22;25082;50.870;0.022;2022-08-27T04:26:21;21.60;71.60
37806;DHT22;25082;50.870;0.022;2022-08-27T04:28:48;21.60;71.60
37806;DHT22;25082;50.870;0.022;2022-08-27T04:31:14;21.60;71.50
37806;DHT22;25082;50.870;0.022;2022-08-27T04:33:41;21.50;71.50
37806;DHT22;25082;50.870;0.022;2022-08-27T04:36:08;21.60;71.60
37806;DHT22;25082;50.870;0.022;2022-08-27T04:38:37;21.50;71.60
37806;DHT22;25082;50.870;0.022;2022-08-27T04:41:05;21.50;71.50
37806;DHT22;25082;50.870;0.022;2022-08-27T04:43:52;21.50;71.60
37806;DHT22;25082;50.870;0.022;2022-08-27T04:46:25;21.50;71.60
37806;DHT22;25082;50.870;0.022;2022-08-27T04:48:52;21.50;71.50
37806;DHT22;25082;50.870;0.022;2022-08-27T04:51:18;21.60;71.60
37806;DHT22;25082;50.870;0.022;2022-08-27T04:53:45;21.50;71.50
37806;DHT22;25082;50.870;0.022;2022-08-27T04:56:15;21.50;71.50
37806;DHT22;25082;50.870;0.022;2022-08-27T04:58:42;21.50;71.50
37806;DHT22;25082;50.870;0.022;2022-08-27T05:01:13;21.50;71.50
37806;DHT22;25082;50.870;0.022;2022-08-27T05:03:39;21.50;71.50
37806;DHT22;25082;50.870;0.022;2022-08-27T05:06:05;21.50;71.50
37806;DHT22;25082;50.870;0.022;2022-08-27T05:08:32;21.50;71.50
37806;DHT22;25082;50.870;0.022;2022-08-27T05:10:58;21.50;71.50
37806;DHT22;25082;50.870;0.022;2022-08-27T05:13:25;21.50;71.60
37806;DHT22;25082;50.870;0.022;2022-08-27T05:15:59;21.50;71.40
37806;DHT22;25082;50.870;0.022;2022-08-27T05:18:26;21.50;71.50
37806;DHT22;25082;50.870;0.022;2022-08-27T05:20:52;21.50;71.50
37806;DHT22;25082;50.870;0.022;2022-08-27T05:23:18;21.50;71.50
37806;DHT22;25082;50.870;0.022;2022-08-27T05:25:47;21.50;71.50
37806;DHT22;25082;50.870;0.022;2022-08-27T05:28:14;21.50;71.60
37806;DHT22;25082;50.870;0.022;2022-08-27T05:30:43;21.50;71.40
37806;DHT22;25082;50.870;0.022;2022-08-27T05:33:14;21.50;71.40
37806;DHT22;25082;50.870;0.022;2022-08-27T05:35:45;21.50;71.40
37806;DHT22;25082;50.870;0.022;2022-08-27T05:38:12;21.50;71.50
37806;DHT22;25082;50.870;0.022;2022-08-27T05:40:39;21.40;71.50
37806;DHT22;25082;50.870;0.022;2022-08-27T05:43:05;21.40;71.40
37806;DHT22;25082;50.870;0.022;2022-08-27T05:45:32;21.50;71.50
37806;DHT22;25082;50.870;0.022;2022-08-27T05:47:58;21.50;71.40
37806;DHT22;25082;50.870;0.022;2022-08-27T05:50:25;21.40;71.40
37806;DHT22;25082;50.870;0.022;2022-08-27T05:52:52;21.40;71.40
37806;DHT22;25082;50.870;0.022;2022-08-27T05:55:18;21.40;71.40
37806;DHT22;25082;50.870;0.022;2022-08-27T05:57:44;21.40;71.40
37806;DHT22;25082;50.870;0.022;2022-08-27T06:00:10;21.40;71.40
37806;DHT22;25082;50.870;0.022;2022-08-27T06:02:54;21.40;71.30
37806;DHT22;25082;50.870;0.022;2022-08-27T06:05:20;21.40;71.40
37806;DHT22;25082;50.870;0.022;2022-08-27T06:07:47;21.40;71.40
37806;DHT22;25082;50.870;0.022;2022-08-27T06:10:13;21.40;71.40
37806;DHT22;25082;50.870;0.022;2022-08-27T06:12:38;21.40;71.40
37806;DHT22;25082;50.870;0.022;2022-08-27T06:15:05;21.40;71.40
37806;DHT22;25082;50.870;0.022;2022-08-27T06:17:31;21.40;71.40
37806;DHT22;25082;50.870;0.022;2022-08-27T06:19:56;21.40;71.40
37806;DHT22;25082;50.870;0.022;2022-08-27T06:22:22;21.40;71.40
37806;DHT22;25082;50.870;0.022;2022-08-27T06:24:48;21.40;71.40
37806;DHT22;25082;50.870;0.022;2022-08-27T06:27:16;21.40;71.40
37806;DHT22;25082;50.870;0.022;2022-08-27T06:29:44;21.30;71.40
37806;DHT22;25082;50.870;0.022;2022-08-27T06:32:11;21.40;72.00
37806;DHT22;25082;50.870;0.022;2022-08-27T06:34:38;21.40;71.40
37806;DHT22;25082;50.870;0.022;2022-08-27T06:37:04;21.40;71.40
37806;DHT22;25082;50.870;0.022;2022-08-27T06:39:31;21.40;71.50
37806;DHT22;25082;50.870;0.022;2022-08-27T06:41:57;21.40;71.40
37806;DHT22;25082;50.870;0.022;2022-08-27T06:44:24;21.40;71.40
37806;DHT22;25082;50.870;0.022;2022-08-27T06:46:50;21.40;71.40
37806;DHT22;25082;50.870;0.022;2022-08-27T06:49:16;21.40;71.40
37806;DHT22;25082;50.870;0.022;2022-08-27T06:51:44;21.40;71.40
37806;DHT22;25082;50.870;0.022;2022-08-27T06:54:12;21.40;71.40
37806;DHT22;25082;50.870;0.022;2022-08-27T06:56:39;21.40;71.50
37806;DHT22;25082;50.870;0.022;2022-08-27T06:59:07;21.40;71.40
37806;DHT22;25082;50.870;0.022;2022-08-27T07:01:37;21.30;71.40
37806;DHT22;25082;50.870;0.022;2022-08-27T07:04:05;21.40;71.40
37806;DHT22;25082;50.870;0.022;2022-08-27T07:06:32;21.40;71.50
37806;DHT22;25082;50.870;0.022;2022-08-27T07:08:59;21.40;71.50
37806;DHT22;25082;50.870;0.022;2022-08-27T07:11:26;21.30;71.50
37806;DHT22;25082;50.870;0.022;2022-08-27T07:13:53;21.30;71.50
37806;DHT22;25082;50.870;0.022;2022-08-27T07:16:21;21.30;71.50
37806;DHT22;25082;50.870;0.022;2022-08-27T07:18:52;21.40;71.60
37806;DHT22;25082;50.870;0.022;2022-08-27T07:21:19;21.30;71.50
37806;DHT22;25082;50.870;0.022;2022-08-27T07:23:46;21.30;71.50
37806;DHT22;25082;50.870;0.022;2022-08-27T07:26:13;21.40;71.60
37806;DHT22;25082;50.870;0.022;2022-08-27T07:28:41;21.30;71.50
37806;DHT22;25082;50.870;0.022;2022-08-27T07:31:09;21.30;71.50
37806;DHT22;25082;50.870;0.022;2022-08-27T07:33:37;21.30;71.50
37806;DHT22;25082;50.870;0.022;2022-08-27T07:36:06;21.30;71.50
37806;DHT22;25082;50.870;0.022;2022-08-27T07:38:34;21.30;71.50
37806;DHT22;25082;50.870;0.022;2022-08-27T07:41:04;21.30;71.60
37806;DHT22;25082;50.870;0.022;2022-08-27T07:43:30;21.30;71.60
37806;DHT22;25082;50.870;0.022;2022-08-27T07:46:14;21.30;71.60
37806;DHT22;25082;50.870;0.022;2022-08-27T07:48:39;21.30;71.60
37806;DHT22;25082;50.870;0.022;2022-08-27T07:51:12;21.30;71.60
37806;DHT22;25082;50.870;0.022;2022-08-27T07:53:38;21.30;71.70
37806;DHT22;25082;50.870;0.022;2022-08-27T07:56:06;21.30;71.70
37806;DHT22;25082;50.870;0.022;2022-08-27T07:58:32;21.30;71.70
37806;DHT22;25082;50.870;0.022;2022-08-27T08:00:59;21.30;71.70
37806;DHT22;25082;50.870;0.022;2022-08-27T08:03:25;21.30;71.70
37806;DHT22;25082;50.870;0.022;2022-08-27T08:05:51;21.30;71.70
37806;DHT22;25082;50.870;0.022;2022-08-27T08:08:20;21.30;71.80
37806;DHT22;25082;50.870;0.022;2022-08-27T08:10:47;21.30;71.80
37806;DHT22;25082;50.870;0.022;2022-08-27T08:13:14;21.30;71.90
37806;DHT22;25082;50.870;0.022;2022-08-27T08:15:43;21.30;71.90
37806;DHT22;25082;50.870;0.022;2022-08-27T08:18:09;21.40;71.90
37806;DHT22;25082;50.870;0.022;2022-08-27T08:20:35;21.30;71.90
37806;DHT22;25082;50.870;0.022;2022-08-27T08:23:01;21.30;71.80
37806;DHT22;25082;50.870;0.022;2022-08-27T08:25:28;21.30;71.90
37806;DHT22;25082;50.870;0.022;2022-08-27T08:27:54;21.30;71.90
37806;DHT22;25082;50.870;0.022;2022-08-27T08:30:21;21.30;71.90
37806;DHT22;25082;50.870;0.022;2022-08-27T08:32:47;21.30;71.90
37806;DHT22;25082;50.870;0.022;2022-08-27T08:35:13;21.40;72.00
37806;DHT22;25082;50.870;0.022;2022-08-27T08:37:41;21.40;72.00
37806;DHT22;25082;50.870;0.022;2022-08-27T08:40:09;21.40;72.00
37806;DHT22;25082;50.870;0.022;2022-08-27T08:42:42;21.40;72.00
37806;DHT22;25082;50.870;0.022;2022-08-27T08:45:10;21.40;72.00
37806;DHT22;25082;50.870;0.022;2022-08-27T08:50:27;21.40;72.10
37806;DHT22;25082;50.870;0.022;2022-08-27T08:53:04;21.40;72.10
37806;DHT22;25082;50.870;0.022;2022-08-27T08:55:47;21.40;72.20
37806;DHT22;25082;50.870;0.022;2022-08-27T09:01:07;21.40;72.20
37806;DHT22;25082;50.870;0.022;2022-08-27T09:03:35;21.40;72.70
37806;DHT22;25082;50.870;0.022;2022-08-27T09:06:07;21.40;72.20
37806;DHT22;25082;50.870;0.022;2022-08-27T09:08:37;21.40;72.20
37806;DHT22;25082;50.870;0.022;2022-08-27T09:11:12;21.40;72.20
37806;DHT22;25082;50.870;0.022;2022-08-27T09:13:42;21.40;72.30
37806;DHT22;25082;50.870;0.022;2022-08-27T09:16:11;21.40;72.30
37806;DHT22;25082;50.870;0.022;2022-08-27T09:18:38;21.40;72.30
37806;DHT22;25082;50.870;0.022;2022-08-27T09:21:35;21.40;72.30
37806;DHT22;25082;50.870;0.022;2022-08-27T09:26:49;21.40;72.30
37806;DHT22;25082;50.870;0.022;2022-08-27T09:29:16;21.50;72.40
37806;DHT22;25082;50.870;0.022;2022-08-27T09:31:54;21.50;72.40
37806;DHT22;25082;50.870;0.022;2022-08-27T09:34:22;21.50;72.50
37806;DHT22;25082;50.870;0.022;2022-08-27T09:37:01;21.50;72.50
37806;DHT22;25082;50.870;0.022;2022-08-27T09:39:54;21.50;72.50
37806;DHT22;25082;50.870;0.022;2022-08-27T09:42:22;21.40;72.50
37806;DHT22;25082;50.870;0.022;2022-08-27T09:44:48;21.50;72.50
37806;DHT22;25082;50.870;0.022;2022-08-27T09:47:14;21.50;72.50
37806;DHT22;25082;50.870;0.022;2022-08-27T09:49:40;21.50;72.50
37806;DHT22;25082;50.870;0.022;2022-08-27T09:52:07;21.50;73.10
37806;DHT22;25082;50.870;0.022;2022-08-27T09:54:41;21.50;72.50
37806;DHT22;25082;50.870;0.022;2022-08-27T09:57:10;21.50;72.50
37806;DHT22;25082;50.870;0.022;2022-08-27T09:59:40;21.50;72.50
37806;DHT22;25082;50.870;0.022;2022-08-27T10:02:15;21.50;72.60
37806;DHT22;25082;50.870;0.022;2022-08-27T10:12:50;21.60;72.60
37806;DHT22;25082;50.870;0.022;2022-08-27T10:15:17;21.50;72.60
37806;DHT22;25082;50.870;0.022;2022-08-27T10:18:04;21.60;72.60
37806;DHT22;25082;50.870;0.022;2022-08-27T10:26:08;21.60;72.70
37806;DHT22;25082;50.870;0.022;2022-08-27T10:28:56;21.60;72.60
37806;DHT22;25082;50.870;0.022;2022-08-27T10:34:32;21.60;72.60
37806;DHT22;25082;50.870;0.022;2022-08-27T10:37:30;21.60;72.60
37806;DHT22;25082;50.870;0.022;2022-08-27T10:40:27;21.60;72.60
37806;DHT22;25082;50.870;0.022;2022-08-27T10:53:49;21.60;72.70
37806;DHT22;25082;50.870;0.022;2022-08-27T10:56:39;21.60;72.70
37806;DHT22;25082;50.870;0.022;2022-08-27T11:05:05;21.70;72.70
37806;DHT22;25082;50.870;0.022;2022-08-27T11:07:41;21.70;72.70
37806;DHT22;25082;50.870;0.022;2022-08-27T11:10:09;21.70;72.70
37806;DHT22;25082;50.870;0.022;2022-08-27T11:12:41;21.70;72.70
37806;DHT22;25082;50.870;0.022;2022-08-27T11:15:20;21.60;72.70
37806;DHT22;25082;50.870;0.022;2022-08-27T11:17:57;21.60;72.70
37806;DHT22;25082;50.870;0.022;2022-08-27T11:23:35;21.60;72.80
37806;DHT22;25082;50.870;0.022;2022-08-27T11:26:03;21.60;72.80
37806;DHT22;25082;50.870;0.022;2022-08-27T11:28:45;21.60;72.80
37806;DHT22;25082;50.870;0.022;2022-08-27T11:31:38;21.60;73.40
37806;DHT22;25082;50.870;0.022;2022-08-27T11:34:33;21.60;72.90
37806;DHT22;25082;50.870;0.022;2022-08-27T11:37:27;21.60;72.90
37806;DHT22;25082;50.870;0.022;2022-08-27T11:43:03;21.60;73.00
37806;DHT22;25082;50.870;0.022;2022-08-27T11:45:38;21.60;73.00
37806;DHT22;25082;50.870;0.022;2022-08-27T11:50:58;21.60;73.00
37806;DHT22;25082;50.870;0.022;2022-08-27T11:53:57;21.60;73.00
37806;DHT22;25082;50.870;0.022;2022-08-27T11:59:21;21.70;73.00
37806;DHT22;25082;50.870;0.022;2022-08-27T12:01:50;21.70;73.00
37806;DHT22;25082;50.870;0.022;2022-08-27T12:09:58;21.70;72.90
37806;DHT22;25082;50.870;0.022;2022-08-27T12:21:02;21.80;73.00
37806;DHT22;25082;50.870;0.022;2022-08-27T12:26:29;21.80;73.00
37806;DHT22;25082;50.870;0.022;2022-08-27T12:32:29;21.80;73.10
37806;DHT22;25082;50.870;0.022;2022-08-27T12:35:12;21.80;73.20
37806;DHT22;25082;50.870;0.022;2022-08-27T12:37:46;21.80;73.20
37806;DHT22;25082;50.870;0.022;2022-08-27T12:40:28;21.80;73.20
37806;DHT22;25082;50.870;0.022;2022-08-27T12:43:09;21.70;73.10
37806;DHT22;25082;50.870;0.022;2022-08-27T12:46:16;21.80;73.20
37806;DHT22;25082;50.870;0.022;2022-08-27T12:48:58;21.70;73.20
37806;DHT22;25082;50.870;0.022;2022-08-27T12:51:33;21.80;73.20
37806;DHT22;25082;50.870;0.022;2022-08-27T12:57:35;21.70;73.20
37806;DHT22;25082;50.870;0.022;2022-08-27T13:00:10;21.70;73.20
37806;DHT22;25082;50.870;0.022;2022-08-27T13:02:58;21.80;73.20
37806;DHT22;25082;50.870;0.022;2022-08-27T13:05:37;21.80;73.20
37806;DHT22;25082;50.870;0.022;2022-08-27T13:08:03;21.80;73.10
37806;DHT22;25082;50.870;0.022;2022-08-27T13:10:30;21.80;73.10
37806;DHT22;25082;50.870;0.022;2022-08-27T13:13:13;21.80;73.10
37806;DHT22;25082;50.870;0.022;2022-08-27T13:15:54;21.80;73.10
37806;DHT22;25082;50.870;0.022;2022-08-27T13:18:21;21.70;73.10
37806;DHT22;25082;50.870;0.022;2022-08-27T13:20:48;21.70;73.10
37806;DHT22;25082;50.870;0.022;2022-08-27T13:23:18;21.80;73.20
37806;DHT22;25082;50.870;0.022;2022-08-27T13:26:19;21.80;73.20
37806;DHT22;25082;50.870;0.022;2022-08-27T13:28:45;21.80;73.20
37806;DHT22;25082;50.870;0.022;2022-08-27T13:31:13;21.80;73.30
37806;DHT22;25082;50.870;0.022;2022-08-27T13:33:40;21.80;73.30
37806;DHT22;25082;50.870;0.022;2022-08-27T13:36:07;21.80;73.30
37806;DHT22;25082;50.870;0.022;2022-08-27T13:38:37;21.80;73.30
37806;DHT22;25082;50.870;0.022;2022-08-27T13:41:16;21.80;73.30
37806;DHT22;25082;50.870;0.022;2022-08-27T13:43:45;21.70;73.30
37806;DHT22;25082;50.870;0.022;2022-08-27T13:46:21;21.70;73.30
37806;DHT22;25082;50.870;0.022;2022-08-27T13:48:51;21.70;73.30
37806;DHT22;25082;50.870;0.022;2022-08-27T13:51:31;21.70;73.30
37806;DHT22;25082;50.870;0.022;2022-08-27T13:54:06;21.70;73.30
37806;DHT22;25082;50.870;0.022;2022-08-27T13:59:22;21.70;73.20
37806;DHT22;25082;50.870;0.022;2022-08-27T14:04:34;21.70;73.20
37806;DHT22;25082;50.870;0.022;2022-08-27T14:07:24;21.80;73.30
37806;DHT22;25082;50.870;0.022;2022-08-27T14:10:08;21.80;73.30
37806;DHT22;25082;50.870;0.022;2022-08-27T14:13:00;21.70;73.10
37806;DHT22;25082;50.870;0.022;2022-08-27T14:15:35;21.80;73.20
37806;DHT22;25082;50.870;0.022;2022-08-27T14:18:19;21.80;73.20
37806;DHT22;25082;50.870;0.022;2022-08-27T14:20:45;21.80;73.20
37806;DHT22;25082;50.870;0.022;2022-08-27T14:23:11;21.70;73.10
37806;DHT22;25082;50.870;0.022;2022-08-27T14:25:39;21.80;73.10
37806;DHT22;25082;50.870;0.022;2022-08-27T14:28:05;21.80;73.10
37806;DHT22;25082;50.870;0.022;2022-08-27T14:30:31;21.80;73.60
37806;DHT22;25082;50.870;0.022;2022-08-27T14:32:58;21.80;73.00
37806;DHT22;25082;50.870;0.022;2022-08-27T14:35:26;21.80;73.00
37806;DHT22;25082;50.870;0.022;2022-08-27T14:37:52;21.80;73.00
37806;DHT22;25082;50.870;0.022;2022-08-27T14:40:19;21.80;72.90
37806;DHT22;25082;50.870;0.022;2022-08-27T14:42:45;21.80;72.90
37806;DHT22;25082;50.870;0.022;2022-08-27T14:45:11;21.80;72.90
37806;DHT22;25082;50.870;0.022;2022-08-27T14:47:38;21.80;72.90
37806;DHT22;25082;50.870;0.022;2022-08-27T14:50:10;21.80;72.90
37806;DHT22;25082;50.870;0.022;2022-08-27T14:52:37;21.80;73.00
37806;DHT22;25082;50.870;0.022;2022-08-27T14:55:04;21.80;73.00
37806;DHT22;25082;50.870;0.022;2022-08-27T14:57:31;21.90;73.10
37806;DHT22;25082;50.870;0.022;2022-08-27T14:59:56;21.80;73.00
37806;DHT22;25082;50.870;0.022;2022-08-27T15:02:22;21.80;73.00
37806;DHT22;25082;50.870;0.022;2022-08-27T15:04:49;21.90;73.60
37806;DHT22;25082;50.870;0.022;2022-08-27T15:07:15;21.80;73.00
37806;DHT22;25082;50.870;0.022;2022-08-27T15:09:41;21.90;73.10
37806;DHT22;25082;50.870;0.022;2022-08-27T15:12:07;21.90;73.20
37806;DHT22;25082;50.870;0.022;2022-08-27T15:14:35;21.90;73.20
37806;DHT22;25082;50.870;0.022;2022-08-27T15:17:02;21.90;73.30
37806;DHT22;25082;50.870;0.022;2022-08-27T15:19:29;21.90;73.30
37806;DHT22;25082;50.870;0.022;2022-08-27T15:22:02;21.90;73.30
37806;DHT22;25082;50.870;0.022;2022-08-27T15:24:38;21.90;73.30
37806;DHT22;25082;50.870;0.022;2022-08-27T15:27:04;21.90;73.30
37806;DHT22;25082;50.870;0.022;2022-08-27T15:29:30;22.00;73.40
37806;DHT22;25082;50.870;0.022;2022-08-27T15:31:56;22.00;73.40
37806;DHT22;25082;50.870;0.022;2022-08-27T15:34:22;21.90;73.30
37806;DHT22;25082;50.870;0.022;2022-08-27T15:36:47;22.00;73.40
37806;DHT22;25082;50.870;0.022;2022-08-27T15:39:13;22.00;73.40
37806;DHT22;25082;50.870;0.022;2022-08-27T15:41:40;22.00;73.50
37806;DHT22;25082;50.870;0.022;2022-08-27T15:44:06;22.00;73.50
37806;DHT22;25082;50.870;0.022;2022-08-27T15:46:32;22.00;73.50
37806;DHT22;25082;50.870;0.022;2022-08-27T15:48:58;22.00;73.50
37806;DHT22;25082;50.870;0.022;2022-08-27T15:51:30;22.00;73.50
37806;DHT22;25082;50.870;0.022;2022-08-27T15:53:57;22.00;73.60
37806;DHT22;25082;50.870;0.022;2022-08-27T15:56:24;22.00;73.60
37806;DHT22;25082;50.870;0.022;2022-08-27T15:58:50;22.00;73.60
37806;DHT22;25082;50.870;0.022;2022-08-27T16:01:23;21.90;73.50
37806;DHT22;25082;50.870;0.022;2022-08-27T16:03:51;22.00;73.60
37806;DHT22;25082;50.870;0.022;2022-08-27T16:06:17;21.90;73.50
37806;DHT22;25082;50.870;0.022;2022-08-27T16:08:42;21.90;73.50
37806;DHT22;25082;50.870;0.022;2022-08-27T16:11:08;21.90;73.50
37806;DHT22;25082;50.870;0.022;2022-08-27T16:13:34;21.90;73.50
37806;DHT22;25082;50.870;0.022;2022-08-27T16:16:01;21.90;73.50
37806;DHT22;25082;50.870;0.022;2022-08-27T16:18:29;21.90;73.50
37806;DHT22;25082;50.870;0.022;2022-08-27T16:20:56;21.90;73.50
37806;DHT22;25082;50.870;0.022;2022-08-27T16:23:24;21.90;73.50
37806;DHT22;25082;50.870;0.022;2022-08-27T16:25:51;21.90;73.50
37806;DHT22;25082;50.870;0.022;2022-08-27T16:28:17;21.90;73.50
37806;DHT22;25082;50.870;0.022;2022-08-27T16:30:43;21.90;73.40
37806;DHT22;25082;50.870;0.022;2022-08-27T16:33:09;22.00;73.50
37806;DHT22;25082;50.870;0.022;2022-08-27T16:35:37;22.00;73.40
37806;DHT22;25082;50.870;0.022;2022-08-27T16:38:04;22.00;73.40
37806;DHT22;25082;50.870;0.022;2022-08-27T16:40:32;22.00;73.40
37806;DHT22;25082;50.870;0.022;2022-08-27T16:42:58;22.00;73.40
37806;DHT22;25082;50.870;0.022;2022-08-27T16:45:26;22.00;74.00
37806;DHT22;25082;50.870;0.022;2022-08-27T16:47:52;22.00;73.50
37806;DHT22;25082;50.870;0.022;2022-08-27T16:50:37;22.00;74.00
37806;DHT22;25082;50.870;0.022;2022-08-27T16:55:32;22.00;73.50
37806;DHT22;25082;50.870;0.022;2022-08-27T16:57:58;22.00;73.50
37806;DHT22;25082;50.870;0.022;2022-08-27T17:00:24;22.00;73.50
37806;DHT22;25082;50.870;0.022;2022-08-27T17:02:50;22.00;73.50
37806;DHT22;25082;50.870;0.022;2022-08-27T17:05:17;22.00;73.50
37806;DHT22;25082;50.870;0.022;2022-08-27T17:07:42;22.00;73.50
37806;DHT22;25082;50.870;0.022;2022-08-27T17:10:08;22.00;73.50
37806;DHT22;25082;50.870;0.022;2022-08-27T17:12:36;22.00;73.50
37806;DHT22;25082;50.870;0.022;2022-08-27T17:15:02;22.00;73.50
37806;DHT22;25082;50.870;0.022;2022-08-27T17:17:28;22.00;73.50